createdAt,value
2023-04-14T00:00:29.286Z,25.49
2023-04-14T00:01:29.343Z,25.51
2023-04-14T00:02:29.478Z,25.49
2023-04-14T00:03:29.615Z,25.54
2023-04-14T00:04:29.701Z,25.51
2023-04-14T00:05:29.514Z,25.51
2023-04-14T00:06:29.527Z,25.52
2023-04-14T00:07:29.576Z,25.49
2023-04-14T00:08:29.632Z,25.51
2023-04-14T00:09:29.679Z,25.48
2023-04-14T00:10:29.690Z,25.49
2023-04-14T00:11:29.752Z,25.49
2023-04-14T00:12:29.811Z,25.49
2023-04-14T00:13:29.803Z,25.49
2023-04-14T00:14:29.843Z,25.49
2023-04-14T00:15:29.885Z,25.48
2023-04-14T00:16:29.949Z,25.49
2023-04-14T00:17:29.991Z,25.51
2023-04-14T00:18:29.994Z,25.48
2023-04-14T00:19:30.058Z,25.48
2023-04-14T00:20:30.107Z,25.48
2023-04-14T00:21:30.162Z,25.49
2023-04-14T00:22:30.166Z,25.48
2023-04-14T00:23:30.199Z,25.48
2023-04-14T00:24:30.254Z,25.47
2023-04-14T00:25:30.272Z,25.45
2023-04-14T00:26:30.315Z,25.49
2023-04-14T00:27:30.380Z,25.44
2023-04-14T00:28:30.383Z,25.48
2023-04-14T00:29:30.458Z,25.44
2023-04-14T00:30:30.508Z,25.45
2023-04-14T00:31:30.537Z,25.45
2023-04-14T00:32:30.620Z,25.47
2023-04-14T00:33:30.602Z,25.47
2023-04-14T00:34:30.653Z,25.45
2023-04-14T00:35:30.702Z,25.45
2023-04-14T00:36:30.726Z,25.47
2023-04-14T00:37:30.797Z,25.45
2023-04-14T00:38:30.793Z,25.45
2023-04-14T00:39:30.852Z,25.45
2023-04-14T00:40:30.905Z,25.44
2023-04-14T00:41:30.923Z,25.45
2023-04-14T00:42:30.981Z,25.42
2023-04-14T00:43:31.041Z,25.44
2023-04-14T00:44:31.052Z,25.45
2023-04-14T00:45:31.093Z,25.45
2023-04-14T00:46:31.142Z,25.44
2023-04-14T00:47:31.201Z,25.41
2023-04-14T00:48:31.199Z,25.45
2023-04-14T00:49:31.269Z,25.44
2023-04-14T00:50:31.328Z,25.42
2023-04-14T00:51:31.410Z,25.44
2023-04-14T00:52:31.370Z,25.40
2023-04-14T00:53:31.431Z,25.44
2023-04-14T00:54:31.452Z,25.44
2023-04-14T00:55:31.607Z,25.42
2023-04-14T00:56:31.576Z,25.42
2023-04-14T00:57:31.592Z,25.41
2023-04-14T00:58:31.697Z,25.41
2023-04-14T00:59:31.699Z,25.41
2023-04-14T01:00:31.761Z,25.41
2023-04-14T01:01:31.839Z,25.41
2023-04-14T01:02:31.972Z,25.42
2023-04-14T01:03:31.993Z,25.41
2023-04-14T01:04:45.103Z,25.40
2023-04-14T01:05:32.947Z,25.41
2023-04-14T01:06:31.956Z,25.40
2023-04-14T01:07:31.922Z,25.40
2023-04-14T01:08:31.954Z,25.41
2023-04-14T01:09:31.920Z,25.41
2023-04-14T01:10:31.903Z,25.41
2023-04-14T01:11:31.885Z,25.41
2023-04-14T01:12:31.886Z,25.40
2023-04-14T01:13:31.880Z,25.37
2023-04-14T01:14:31.903Z,25.38
2023-04-14T01:15:31.957Z,25.35
2023-04-14T01:16:32.114Z,25.40
2023-04-14T01:17:32.116Z,25.38
2023-04-14T01:18:32.068Z,25.38
2023-04-14T01:19:32.148Z,25.40
2023-04-14T01:20:32.192Z,25.37
2023-04-14T01:21:32.228Z,25.38
2023-04-14T01:22:32.335Z,25.40
2023-04-14T01:23:32.383Z,25.37
2023-04-14T01:24:32.429Z,25.40
2023-04-14T01:25:32.459Z,25.38
2023-04-14T01:26:32.518Z,25.38
2023-04-14T01:27:32.554Z,25.38
2023-04-14T01:28:32.612Z,25.37
2023-04-14T01:29:32.692Z,25.37
2023-04-14T01:30:32.725Z,25.37
2023-04-14T01:31:32.838Z,25.37
2023-04-14T01:32:32.840Z,25.34
2023-04-14T01:33:32.868Z,25.37
2023-04-14T01:34:32.921Z,25.35
2023-04-14T01:35:33.018Z,25.37
2023-04-14T01:36:33.028Z,25.35
2023-04-14T01:37:33.070Z,25.35
2023-04-14T01:38:33.134Z,25.37
2023-04-14T01:39:33.189Z,25.35
2023-04-14T01:40:33.249Z,25.37
2023-04-14T01:41:33.288Z,25.34
2023-04-14T01:42:33.342Z,25.35
2023-04-14T01:43:33.355Z,25.35
2023-04-14T01:44:33.445Z,25.35
2023-04-14T01:45:33.503Z,25.37
2023-04-14T01:46:34.070Z,25.35
2023-04-14T01:47:33.604Z,25.35
2023-04-14T01:48:33.634Z,25.35
2023-04-14T01:49:33.772Z,25.34
2023-04-14T01:50:33.815Z,25.34
2023-04-14T01:51:33.785Z,25.33
2023-04-14T01:52:33.906Z,25.33
2023-04-14T01:53:33.898Z,25.34
2023-04-14T01:54:33.943Z,25.34
2023-04-14T01:55:34.034Z,25.35
2023-04-14T01:56:34.092Z,25.35
2023-04-14T01:57:34.231Z,25.33
2023-04-14T01:58:34.178Z,25.35
2023-04-14T01:59:34.226Z,25.34
2023-04-14T02:00:34.272Z,25.34
2023-04-14T02:01:34.438Z,25.34
2023-04-14T02:02:34.496Z,25.34
2023-04-14T02:03:34.529Z,25.34
2023-04-14T02:04:34.459Z,25.30
2023-04-14T02:05:34.597Z,25.33
2023-04-14T02:06:34.546Z,25.31
2023-04-14T02:07:34.636Z,25.31
2023-04-14T02:08:34.665Z,25.34
2023-04-14T02:09:34.734Z,25.33
2023-04-14T02:10:34.777Z,25.30
2023-04-14T02:11:34.837Z,25.33
2023-04-14T02:12:34.842Z,25.31
2023-04-14T02:13:34.913Z,25.30
2023-04-14T02:14:34.936Z,25.31
2023-04-14T02:15:34.983Z,25.33
2023-04-14T02:16:35.356Z,25.31
2023-04-14T02:17:35.162Z,25.31
2023-04-14T02:18:35.166Z,25.31
2023-04-14T02:19:35.243Z,25.31
2023-04-14T02:20:35.286Z,25.33
2023-04-14T02:21:35.326Z,25.31
2023-04-14T02:22:35.373Z,25.30
2023-04-14T02:23:35.453Z,25.30
2023-04-14T02:24:35.475Z,25.33
2023-04-14T02:25:35.573Z,25.27
2023-04-14T02:26:35.589Z,25.30
2023-04-14T02:27:35.632Z,25.31
2023-04-14T02:28:35.712Z,25.30
2023-04-14T02:29:35.786Z,25.27
2023-04-14T02:30:35.865Z,25.28
2023-04-14T02:31:35.882Z,25.27
2023-04-14T02:32:35.923Z,25.30
2023-04-14T02:33:35.989Z,25.28
2023-04-14T02:34:38.051Z,25.30
2023-04-14T02:35:36.097Z,25.30
2023-04-14T02:36:36.136Z,25.31
2023-04-14T02:37:36.159Z,25.26
2023-04-14T02:38:36.227Z,25.28
2023-04-14T02:39:36.248Z,25.28
2023-04-14T02:40:36.337Z,25.27
2023-04-14T02:41:36.402Z,25.28
2023-04-14T02:42:36.424Z,25.27
2023-04-14T02:43:36.451Z,25.31
2023-04-14T02:44:36.526Z,25.27
2023-04-14T02:45:36.659Z,25.27
2023-04-14T02:46:36.714Z,25.30
2023-04-14T02:47:36.758Z,25.28
2023-04-14T02:48:36.764Z,25.28
2023-04-14T02:49:36.879Z,25.31
2023-04-14T02:50:36.906Z,25.30
2023-04-14T02:51:36.913Z,25.30
2023-04-14T02:52:37.039Z,25.28
2023-04-14T02:53:37.052Z,25.31
2023-04-14T02:54:37.083Z,25.28
2023-04-14T02:55:37.160Z,25.30
2023-04-14T02:56:37.210Z,25.30
2023-04-14T02:57:37.260Z,25.28
2023-04-14T02:58:37.302Z,25.30
2023-04-14T02:59:37.376Z,25.30
2023-04-14T03:00:37.415Z,25.30
2023-04-14T03:01:37.508Z,25.27
2023-04-14T03:02:37.548Z,25.30
2023-04-14T03:03:37.719Z,25.27
2023-04-14T03:04:37.720Z,25.30
2023-04-14T03:05:37.671Z,25.28
2023-04-14T03:06:37.763Z,25.28
2023-04-14T03:07:37.774Z,25.30
2023-04-14T03:08:37.838Z,25.28
2023-04-14T03:09:37.906Z,25.28
2023-04-14T03:10:37.987Z,25.30
2023-04-14T03:11:38.048Z,25.28
2023-04-14T03:12:38.071Z,25.26
2023-04-14T03:13:38.105Z,25.28
2023-04-14T03:14:38.169Z,25.26
2023-04-14T03:15:38.245Z,25.28
2023-04-14T03:16:38.265Z,25.30
2023-04-14T03:17:38.386Z,25.28
2023-04-14T03:18:38.424Z,25.28
2023-04-14T03:19:38.435Z,25.28
2023-04-14T03:20:38.501Z,25.30
2023-04-14T03:21:38.532Z,25.27
2023-04-14T03:22:38.608Z,25.27
2023-04-14T03:23:38.615Z,25.27
2023-04-14T03:24:38.688Z,25.30
2023-04-14T03:25:38.733Z,25.27
2023-04-14T03:26:38.877Z,25.27
2023-04-14T03:27:38.875Z,25.27
2023-04-14T03:28:38.905Z,25.26
2023-04-14T03:29:38.970Z,25.26
2023-04-14T03:30:39.019Z,25.28
2023-04-14T03:31:39.082Z,25.27
2023-04-14T03:32:39.110Z,25.26
2023-04-14T03:33:39.168Z,25.24
2023-04-14T03:34:39.218Z,25.27
2023-04-14T03:35:39.266Z,25.26
2023-04-14T03:36:39.345Z,25.26
2023-04-14T03:37:39.388Z,25.27
2023-04-14T03:38:39.407Z,25.23
2023-04-14T03:39:39.454Z,25.26
2023-04-14T03:40:39.492Z,25.27
2023-04-14T03:41:39.583Z,25.24
2023-04-14T03:42:39.604Z,25.27
2023-04-14T03:43:39.652Z,25.24
2023-04-14T03:44:39.738Z,25.24
2023-04-14T03:45:39.744Z,25.26
2023-04-14T03:46:39.813Z,25.26
2023-04-14T03:47:39.845Z,25.27
2023-04-14T03:48:39.883Z,25.24
2023-04-14T03:49:39.905Z,25.26
2023-04-14T03:50:39.941Z,25.24
2023-04-14T03:51:40.003Z,25.24
2023-04-14T03:52:40.053Z,25.23
2023-04-14T03:53:40.066Z,25.24
2023-04-14T03:54:40.092Z,25.23
2023-04-14T03:55:40.149Z,25.23
2023-04-14T03:56:40.193Z,25.23
2023-04-14T03:57:40.337Z,25.23
2023-04-14T03:58:40.283Z,25.24
2023-04-14T03:59:40.308Z,25.23
2023-04-14T04:00:40.375Z,25.23
2023-04-14T04:01:40.462Z,25.23
2023-04-14T04:02:40.565Z,25.24
2023-04-14T04:03:40.717Z,25.23
2023-04-14T04:04:40.660Z,25.21
2023-04-14T04:05:40.597Z,25.21
2023-04-14T04:06:40.617Z,25.24
2023-04-14T04:07:40.658Z,25.23
2023-04-14T04:08:40.697Z,25.20
2023-04-14T04:09:40.751Z,25.24
2023-04-14T04:10:40.775Z,25.23
2023-04-14T04:11:40.836Z,25.21
2023-04-14T04:12:40.883Z,25.20
2023-04-14T04:13:40.968Z,25.21
2023-04-14T04:14:40.990Z,25.21
2023-04-14T04:15:41.049Z,25.21
2023-04-14T04:16:41.162Z,25.23
2023-04-14T04:17:41.226Z,25.23
2023-04-14T04:18:41.176Z,25.21
2023-04-14T04:19:41.219Z,25.21
2023-04-14T04:20:41.278Z,25.21
2023-04-14T04:21:41.302Z,25.23
2023-04-14T04:22:41.345Z,25.21
2023-04-14T04:23:41.404Z,25.21
2023-04-14T04:24:41.429Z,25.21
2023-04-14T04:25:41.445Z,25.21
2023-04-14T04:26:41.477Z,25.23
2023-04-14T04:27:41.575Z,25.21
2023-04-14T04:28:41.645Z,25.23
2023-04-14T04:29:41.651Z,25.23
2023-04-14T04:30:41.690Z,25.21
2023-04-14T04:31:41.766Z,25.20
2023-04-14T04:32:41.809Z,25.23
2023-04-14T04:33:41.838Z,25.23
2023-04-14T04:34:41.874Z,25.21
2023-04-14T04:35:41.925Z,25.21
2023-04-14T04:36:41.913Z,25.21
2023-04-14T04:37:41.940Z,25.21
2023-04-14T04:38:41.972Z,25.21
2023-04-14T04:39:41.998Z,25.21
2023-04-14T04:40:42.067Z,25.21
2023-04-14T04:41:42.050Z,25.21
2023-04-14T04:42:42.084Z,25.21
2023-04-14T04:43:42.174Z,25.20
2023-04-14T04:44:42.147Z,25.21
2023-04-14T04:45:42.260Z,25.20
2023-04-14T04:46:42.298Z,25.20
2023-04-14T04:47:42.365Z,25.21
2023-04-14T04:48:42.374Z,25.21
2023-04-14T04:49:42.458Z,25.21
2023-04-14T04:50:42.474Z,25.21
2023-04-14T04:51:42.513Z,25.21
2023-04-14T04:52:42.544Z,25.23
2023-04-14T04:53:42.602Z,25.20
2023-04-14T04:54:42.651Z,25.23
2023-04-14T04:55:42.718Z,25.24
2023-04-14T04:56:42.732Z,25.27
2023-04-14T04:57:42.805Z,25.24
2023-04-14T04:58:42.859Z,25.23
2023-04-14T04:59:42.918Z,25.23
2023-04-14T05:00:42.962Z,25.23
2023-04-14T05:01:43.026Z,25.26
2023-04-14T05:02:43.193Z,25.23
2023-04-14T05:03:43.104Z,25.28
2023-04-14T05:04:43.297Z,25.26
2023-04-14T05:05:43.216Z,25.27
2023-04-14T05:06:43.294Z,25.27
2023-04-14T05:07:43.312Z,25.28
2023-04-14T05:08:43.394Z,25.28
2023-04-14T05:09:43.406Z,25.28
2023-04-14T05:10:43.457Z,25.24
2023-04-14T05:11:43.560Z,25.27
2023-04-14T05:12:43.582Z,25.28
2023-04-14T05:13:43.627Z,25.28
2023-04-14T05:14:43.716Z,25.28
2023-04-14T05:15:43.826Z,25.28
2023-04-14T05:16:43.787Z,25.30
2023-04-14T05:17:43.913Z,25.30
2023-04-14T05:18:43.861Z,25.30
2023-04-14T05:19:43.970Z,25.30
2023-04-14T05:20:44.113Z,25.31
2023-04-14T05:21:44.035Z,25.33
2023-04-14T05:22:44.098Z,25.33
2023-04-14T05:23:44.141Z,25.31
2023-04-14T05:24:44.203Z,25.31
2023-04-14T05:25:45.360Z,25.34
2023-04-14T05:26:58.349Z,25.33
2023-04-14T05:27:45.232Z,25.33
2023-04-14T05:28:44.179Z,25.33
2023-04-14T05:29:44.204Z,25.34
2023-04-14T05:30:44.205Z,25.34
2023-04-14T05:31:44.183Z,25.33
2023-04-14T05:32:44.184Z,25.35
2023-04-14T05:33:44.180Z,25.35
2023-04-14T05:34:44.194Z,25.34
2023-04-14T05:35:44.469Z,25.37
2023-04-14T05:36:44.140Z,25.38
2023-04-14T05:37:44.167Z,25.38
2023-04-14T05:38:44.193Z,25.41
2023-04-14T05:39:44.259Z,25.42
2023-04-14T05:40:44.301Z,25.42
2023-04-14T05:41:44.393Z,25.45
2023-04-14T05:42:44.382Z,25.48
2023-04-14T05:43:44.421Z,25.51
2023-04-14T05:44:44.504Z,25.52
2023-04-14T05:45:44.498Z,25.52
2023-04-14T05:46:44.578Z,25.58
2023-04-14T05:47:44.755Z,25.60
2023-04-14T05:48:44.614Z,25.62
2023-04-14T05:49:44.638Z,25.62
2023-04-14T05:50:44.990Z,25.66
2023-04-14T05:51:44.667Z,25.69
2023-04-14T05:52:44.762Z,25.74
2023-04-14T05:53:44.789Z,25.76
2023-04-14T05:54:44.774Z,25.79
2023-04-14T05:55:44.977Z,25.81
2023-04-14T05:56:44.836Z,25.83
2023-04-14T05:57:44.848Z,25.85
2023-04-14T05:58:44.853Z,25.85
2023-04-14T05:59:44.848Z,25.85
2023-04-14T06:00:45.508Z,25.88
2023-04-14T06:01:45.004Z,25.88
2023-04-14T06:02:45.118Z,25.92
2023-04-14T06:03:45.170Z,25.91
2023-04-14T06:04:45.101Z,25.93
2023-04-14T06:05:44.939Z,25.95
2023-04-14T06:06:45.000Z,25.95
2023-04-14T06:07:44.964Z,25.97
2023-04-14T06:08:44.975Z,26.00
2023-04-14T06:09:45.073Z,25.99
2023-04-14T06:10:45.023Z,26.03
2023-04-14T06:11:45.016Z,26.03
2023-04-14T06:12:45.025Z,26.04
2023-04-14T06:13:45.061Z,26.07
2023-04-14T06:14:45.097Z,26.09
2023-04-14T06:15:45.128Z,26.07
2023-04-14T06:16:45.189Z,26.09
2023-04-14T06:17:45.190Z,26.10
2023-04-14T06:18:45.169Z,26.13
2023-04-14T06:19:45.186Z,26.13
2023-04-14T06:20:45.240Z,26.15
2023-04-14T06:21:45.245Z,26.16
2023-04-14T06:22:45.322Z,26.16
2023-04-14T06:23:45.364Z,26.17
2023-04-14T06:24:45.414Z,26.19
2023-04-14T06:25:45.402Z,26.20
2023-04-14T06:26:45.436Z,26.19
2023-04-14T06:27:45.500Z,26.20
2023-04-14T06:28:45.548Z,26.23
2023-04-14T06:29:45.618Z,26.23
2023-04-14T06:30:45.681Z,26.24
2023-04-14T06:31:45.711Z,26.26
2023-04-14T06:32:45.772Z,26.26
2023-04-14T06:33:45.820Z,26.29
2023-04-14T06:34:45.893Z,26.29
2023-04-14T06:35:45.985Z,26.30
2023-04-14T06:36:45.975Z,26.30
2023-04-14T06:37:45.986Z,26.33
2023-04-14T06:38:46.061Z,26.33
2023-04-14T06:39:46.114Z,26.33
2023-04-14T06:40:46.514Z,26.33
2023-04-14T06:41:46.200Z,26.34
2023-04-14T06:42:46.243Z,26.37
2023-04-14T06:43:46.272Z,26.31
2023-04-14T06:44:46.356Z,26.30
2023-04-14T06:45:46.472Z,26.31
2023-04-14T06:46:46.977Z,26.29
2023-04-14T06:47:46.526Z,26.27
2023-04-14T06:48:46.603Z,26.20
2023-04-14T06:49:46.673Z,26.24
2023-04-14T06:50:46.636Z,26.24
2023-04-14T06:51:46.980Z,26.23
2023-04-14T06:52:46.709Z,26.29
2023-04-14T06:53:46.757Z,26.26
2023-04-14T06:54:46.822Z,26.16
2023-04-14T06:55:46.810Z,26.07
2023-04-14T06:56:46.980Z,26.03
2023-04-14T06:57:46.918Z,26.00
2023-04-14T06:58:47.056Z,25.97
2023-04-14T06:59:46.986Z,25.99
2023-04-14T07:00:47.052Z,26.03
2023-04-14T07:01:47.111Z,26.03
2023-04-14T07:02:47.136Z,26.04
2023-04-14T07:03:47.035Z,26.06
2023-04-14T07:04:47.086Z,26.12
2023-04-14T07:05:47.082Z,26.16
2023-04-14T07:06:47.159Z,26.17
2023-04-14T07:07:47.183Z,26.22
2023-04-14T07:08:47.258Z,26.22
2023-04-14T07:09:47.298Z,26.29
2023-04-14T07:10:47.344Z,26.31
2023-04-14T07:11:47.360Z,26.31
2023-04-14T07:12:47.421Z,26.33
2023-04-14T07:13:47.446Z,26.37
2023-04-14T07:14:47.496Z,26.40
2023-04-14T07:15:47.566Z,26.40
2023-04-14T07:16:47.988Z,26.44
2023-04-14T07:17:47.586Z,26.46
2023-04-14T07:18:47.589Z,26.46
2023-04-14T07:19:47.664Z,26.47
2023-04-14T07:20:47.626Z,26.50
2023-04-14T07:21:47.652Z,26.52
2023-04-14T07:22:47.698Z,26.54
2023-04-14T07:23:47.675Z,26.57
2023-04-14T07:24:47.680Z,26.54
2023-04-14T07:25:47.684Z,26.57
2023-04-14T07:26:47.788Z,26.58
2023-04-14T07:28:00.249Z,26.58
2023-04-14T07:28:48.747Z,26.62
2023-04-14T07:29:47.759Z,26.62
2023-04-14T07:30:47.761Z,26.62
2023-04-14T07:31:47.818Z,26.65
2023-04-14T07:32:47.763Z,26.67
2023-04-14T07:33:47.720Z,26.68
2023-04-14T07:34:47.714Z,26.70
2023-04-14T07:35:58.663Z,26.71
2023-04-14T07:36:49.018Z,26.74
2023-04-14T07:37:47.687Z,26.74
2023-04-14T07:38:47.708Z,26.74
2023-04-14T07:39:47.709Z,26.74
2023-04-14T07:40:47.737Z,26.74
2023-04-14T07:41:48.036Z,26.75
2023-04-14T07:42:47.664Z,26.75
2023-04-14T07:43:47.627Z,26.78
2023-04-14T07:44:47.646Z,26.74
2023-04-14T07:45:47.702Z,26.71
2023-04-14T07:46:47.676Z,26.70
2023-04-14T07:47:47.677Z,26.71
2023-04-14T07:48:47.633Z,26.71
2023-04-14T07:49:47.623Z,26.73
2023-04-14T07:50:47.612Z,26.71
2023-04-14T07:51:47.584Z,26.74
2023-04-14T07:52:47.581Z,26.75
2023-04-14T07:53:47.594Z,26.74
2023-04-14T07:54:47.563Z,26.71
2023-04-14T07:55:47.558Z,26.68
2023-04-14T07:56:47.552Z,26.62
2023-04-14T07:57:47.590Z,26.58
2023-04-14T07:58:47.646Z,26.51
2023-04-14T07:59:47.666Z,26.46
2023-04-14T08:00:47.744Z,26.43
2023-04-14T08:01:47.756Z,26.36
2023-04-14T08:02:47.936Z,26.27
2023-04-14T08:03:48.013Z,26.27
2023-04-14T08:04:47.804Z,26.26
2023-04-14T08:05:47.765Z,26.24
2023-04-14T08:06:47.746Z,26.26
2023-04-14T08:07:47.735Z,26.24
2023-04-14T08:08:47.784Z,26.26
2023-04-14T08:09:47.808Z,26.29
2023-04-14T08:10:47.876Z,26.30
2023-04-14T08:11:47.954Z,26.33
2023-04-14T08:12:47.973Z,26.34
2023-04-14T08:13:48.006Z,26.37
2023-04-14T08:14:48.036Z,26.39
2023-04-14T08:15:48.083Z,26.43
2023-04-14T08:16:48.241Z,26.46
2023-04-14T08:17:48.282Z,26.47
2023-04-14T08:18:48.212Z,26.50
2023-04-14T08:19:48.237Z,26.54
2023-04-14T08:20:48.265Z,26.51
2023-04-14T08:21:48.284Z,26.54
2023-04-14T08:22:48.350Z,26.57
2023-04-14T08:23:48.373Z,26.57
2023-04-14T08:24:48.394Z,26.62
2023-04-14T08:25:48.410Z,26.61
2023-04-14T08:26:48.421Z,26.64
2023-04-14T08:27:48.384Z,26.68
2023-04-14T08:30:08.387Z,26.68
2023-04-14T08:31:07.602Z,26.70
2023-04-14T08:32:07.701Z,26.71
2023-04-14T08:33:07.673Z,26.73
2023-04-14T08:34:07.585Z,26.73
2023-04-14T08:35:38.624Z,26.74
2023-04-14T08:36:08.639Z,26.77
2023-04-14T08:37:07.879Z,26.77
2023-04-14T08:38:07.582Z,26.73
2023-04-14T08:39:07.589Z,26.73
2023-04-14T08:40:07.526Z,26.77
2023-04-14T08:41:07.526Z,26.77
2023-04-14T08:42:07.815Z,26.79
2023-04-14T08:43:07.509Z,26.79
2023-04-14T08:44:07.506Z,26.88
2023-04-14T08:45:07.493Z,26.89
2023-04-14T08:46:07.533Z,26.89
2023-04-14T08:47:07.489Z,26.91
2023-04-14T08:48:07.562Z,26.95
2023-04-14T08:49:07.634Z,26.92
2023-04-14T08:50:07.655Z,26.97
2023-04-14T08:51:07.711Z,26.97
2023-04-14T08:52:07.729Z,27.02
2023-04-14T08:53:07.728Z,26.91
2023-04-14T08:54:07.895Z,26.62
2023-04-14T08:55:07.852Z,26.46
2023-04-14T08:56:07.812Z,26.31
2023-04-14T08:57:07.829Z,26.23
2023-04-14T08:58:07.868Z,26.19
2023-04-14T08:59:07.916Z,26.17
2023-04-14T09:00:07.924Z,26.16
2023-04-14T09:01:08.013Z,26.19
2023-04-14T09:02:08.191Z,26.22
2023-04-14T09:03:08.129Z,26.26
2023-04-14T09:04:08.667Z,26.33
2023-04-14T09:05:08.097Z,26.36
2023-04-14T09:06:08.150Z,26.41
2023-04-14T09:07:08.147Z,26.46
2023-04-14T09:08:08.179Z,26.52
2023-04-14T09:09:08.174Z,26.60
2023-04-14T09:10:08.172Z,26.64
2023-04-14T09:11:08.182Z,26.70
2023-04-14T09:12:08.338Z,26.74
2023-04-14T09:13:08.309Z,26.78
2023-04-14T09:14:08.370Z,26.85
2023-04-14T09:15:08.385Z,26.85
2023-04-14T09:16:08.482Z,26.91
2023-04-14T09:17:08.929Z,26.91
2023-04-14T09:18:08.546Z,26.94
2023-04-14T09:19:08.573Z,26.98
2023-04-14T09:20:35.961Z,27.03
2023-04-14T09:21:50.342Z,27.02
2023-04-14T09:22:09.591Z,27.06
2023-04-14T09:23:08.528Z,27.08
2023-04-14T09:24:10.444Z,27.13
2023-04-14T09:25:08.513Z,27.16
2023-04-14T09:26:08.540Z,27.16
2023-04-14T09:27:08.521Z,27.21
2023-04-14T09:28:08.543Z,27.22
2023-04-14T09:29:08.534Z,27.26
2023-04-14T09:30:08.536Z,27.25
2023-04-14T09:31:08.538Z,27.30
2023-04-14T09:32:08.566Z,27.32
2023-04-14T09:33:08.540Z,27.35
2023-04-14T09:34:08.519Z,27.37
2023-04-14T09:35:08.464Z,27.45
2023-04-14T09:36:08.476Z,27.45
2023-04-14T09:37:08.505Z,27.50
2023-04-14T09:38:08.443Z,27.53
2023-04-14T09:39:08.509Z,27.53
2023-04-14T09:40:08.480Z,27.56
2023-04-14T09:41:08.497Z,27.60
2023-04-14T09:42:08.509Z,27.61
2023-04-14T09:43:08.426Z,27.61
2023-04-14T09:44:08.447Z,27.63
2023-04-14T09:45:08.475Z,27.61
2023-04-14T09:46:08.476Z,27.63
2023-04-14T09:47:08.877Z,27.60
2023-04-14T09:48:08.443Z,27.58
2023-04-14T09:49:08.402Z,27.60
2023-04-14T09:50:08.396Z,27.57
2023-04-14T09:51:08.372Z,27.56
2023-04-14T09:52:08.414Z,27.53
2023-04-14T09:53:08.348Z,27.54
2023-04-14T09:54:08.319Z,27.53
2023-04-14T09:55:08.332Z,27.47
2023-04-14T09:56:08.327Z,27.50
2023-04-14T09:57:08.352Z,27.47
2023-04-14T09:58:08.388Z,27.46
2023-04-14T09:59:08.345Z,27.49
2023-04-14T10:00:08.322Z,27.43
2023-04-14T10:01:08.352Z,27.40
2023-04-14T10:02:08.413Z,27.42
2023-04-14T10:03:08.519Z,27.39
2023-04-14T10:04:08.295Z,27.39
2023-04-14T10:05:08.367Z,27.37
2023-04-14T10:06:08.291Z,27.36
2023-04-14T10:07:08.268Z,27.32
2023-04-14T10:08:08.272Z,27.30
2023-04-14T10:09:08.274Z,27.32
2023-04-14T10:10:08.236Z,27.30
2023-04-14T10:11:08.212Z,27.25
2023-04-14T10:12:09.711Z,27.26
2023-04-14T10:13:08.232Z,27.25
2023-04-14T10:14:08.340Z,27.25
2023-04-14T10:15:08.199Z,27.24
2023-04-14T10:16:08.223Z,27.24
2023-04-14T10:17:08.277Z,27.22
2023-04-14T10:18:08.200Z,27.21
2023-04-14T10:19:08.178Z,27.21
2023-04-14T10:20:08.186Z,27.21
2023-04-14T10:21:08.172Z,27.21
2023-04-14T10:22:08.190Z,27.24
2023-04-14T10:23:08.148Z,27.19
2023-04-14T10:24:08.245Z,27.21
2023-04-14T10:25:08.219Z,27.19
2023-04-14T10:26:08.290Z,27.21
2023-04-14T10:27:08.306Z,27.21
2023-04-14T10:28:08.371Z,27.19
2023-04-14T10:29:08.397Z,27.21
2023-04-14T10:30:08.432Z,27.21
2023-04-14T10:31:08.500Z,27.21
2023-04-14T10:32:08.595Z,27.21
2023-04-14T10:33:08.791Z,27.19
2023-04-14T10:34:08.657Z,27.18
2023-04-14T10:35:08.694Z,27.19
2023-04-14T10:36:08.767Z,27.13
2023-04-14T10:37:08.856Z,26.92
2023-04-14T10:38:08.795Z,26.73
2023-04-14T10:39:08.886Z,26.43
2023-04-14T10:40:08.869Z,26.24
2023-04-14T10:41:08.918Z,26.10
2023-04-14T10:42:08.952Z,26.04
2023-04-14T10:43:09.005Z,26.00
2023-04-14T10:44:09.000Z,25.86
2023-04-14T10:45:09.043Z,25.75
2023-04-14T10:46:09.069Z,25.57
2023-04-14T10:47:09.212Z,25.41
2023-04-14T10:48:09.153Z,25.27
2023-04-14T10:49:09.217Z,25.16
2023-04-14T10:50:09.214Z,25.05
2023-04-14T10:51:09.207Z,24.89
2023-04-14T10:52:09.234Z,24.82
2023-04-14T10:53:09.355Z,24.79
2023-04-14T10:54:09.291Z,24.80
2023-04-14T10:55:09.377Z,24.80
2023-04-14T10:56:09.413Z,24.85
2023-04-14T10:57:09.467Z,24.89
2023-04-14T10:58:09.478Z,24.97
2023-04-14T10:59:09.470Z,25.03
2023-04-14T11:00:09.475Z,25.07
2023-04-14T11:01:09.510Z,25.14
2023-04-14T11:02:09.647Z,25.17
2023-04-14T11:03:09.635Z,25.20
2023-04-14T11:04:09.605Z,25.14
2023-04-14T11:05:09.590Z,25.16
2023-04-14T11:06:09.563Z,25.18
2023-04-14T11:07:09.599Z,25.17
2023-04-14T11:08:09.585Z,25.20
2023-04-14T11:09:09.581Z,25.26
2023-04-14T11:10:09.627Z,25.26
2023-04-14T11:11:09.662Z,25.35
2023-04-14T11:12:09.699Z,25.42
2023-04-14T11:13:09.742Z,25.52
2023-04-14T11:14:09.765Z,25.58
2023-04-14T11:15:09.745Z,25.65
2023-04-14T11:16:09.851Z,25.78
2023-04-14T11:17:09.812Z,25.86
2023-04-14T11:18:09.851Z,25.92
2023-04-14T11:19:09.908Z,26.00
2023-04-14T11:20:10.011Z,26.07
2023-04-14T11:21:10.018Z,26.17
2023-04-14T11:22:10.013Z,26.27
2023-04-14T11:23:10.079Z,26.31
2023-04-14T11:24:10.060Z,26.39
2023-04-14T11:25:10.038Z,26.43
2023-04-14T11:26:10.067Z,26.50
2023-04-14T11:27:10.058Z,26.55
2023-04-14T11:28:10.057Z,26.58
2023-04-14T11:29:10.098Z,26.58
2023-04-14T11:30:10.230Z,26.62
2023-04-14T11:31:10.163Z,26.65
2023-04-14T11:32:10.452Z,26.68
2023-04-14T11:33:10.261Z,26.70
2023-04-14T11:34:10.169Z,26.73
2023-04-14T11:35:10.093Z,26.70
2023-04-14T11:36:10.070Z,26.73
2023-04-14T11:37:10.077Z,26.68
2023-04-14T11:38:10.104Z,26.70
2023-04-14T11:39:10.052Z,26.67
2023-04-14T11:40:10.062Z,26.68
2023-04-14T11:41:10.110Z,26.67
2023-04-14T11:42:10.067Z,26.62
2023-04-14T11:43:10.038Z,26.64
2023-04-14T11:44:10.097Z,26.61
2023-04-14T11:45:10.038Z,26.61
2023-04-14T11:46:10.105Z,26.58
2023-04-14T11:47:10.074Z,26.60
2023-04-14T11:48:10.011Z,26.60
2023-04-14T11:49:10.055Z,26.55
2023-04-14T11:50:10.060Z,26.52
2023-04-14T11:51:10.083Z,26.55
2023-04-14T11:52:10.144Z,26.52
2023-04-14T11:53:10.153Z,26.54
2023-04-14T11:54:10.243Z,26.54
2023-04-14T11:55:10.251Z,26.54
2023-04-14T11:56:10.272Z,26.50
2023-04-14T11:57:10.309Z,26.51
2023-04-14T11:58:10.366Z,26.50
2023-04-14T11:59:10.433Z,26.50
2023-04-14T12:00:10.435Z,26.47
2023-04-14T12:01:10.456Z,26.48
2023-04-14T12:02:10.534Z,26.46
2023-04-14T12:03:10.991Z,26.44
2023-04-14T12:04:10.747Z,26.47
2023-04-14T12:05:10.737Z,26.44
2023-04-14T12:06:10.677Z,26.46
2023-04-14T12:07:10.683Z,26.43
2023-04-14T12:08:12.132Z,26.43
2023-04-14T12:09:10.782Z,26.41
2023-04-14T12:10:10.816Z,26.41
2023-04-14T12:11:10.859Z,26.40
2023-04-14T12:12:10.899Z,26.39
2023-04-14T12:13:11.035Z,26.36
2023-04-14T12:14:11.040Z,26.37
2023-04-14T12:15:11.038Z,26.37
2023-04-14T12:16:11.119Z,26.39
2023-04-14T12:17:11.123Z,26.33
2023-04-14T12:18:11.192Z,26.36
2023-04-14T12:19:11.230Z,26.39
2023-04-14T12:20:11.282Z,26.36
2023-04-14T12:21:12.148Z,26.37
2023-04-14T12:22:11.412Z,26.37
2023-04-14T12:23:11.457Z,26.41
2023-04-14T12:24:11.451Z,26.37
2023-04-14T12:25:12.401Z,26.39
2023-04-14T12:26:11.550Z,26.39
2023-04-14T12:27:11.579Z,26.39
2023-04-14T12:28:11.643Z,26.39
2023-04-14T12:29:11.672Z,26.39
2023-04-14T12:30:11.676Z,26.40
2023-04-14T12:31:11.807Z,26.37
2023-04-14T12:32:11.789Z,26.39
2023-04-14T12:33:11.805Z,26.37
2023-04-14T12:34:11.844Z,26.40
2023-04-14T12:35:11.899Z,26.39
2023-04-14T12:36:11.937Z,26.41
2023-04-14T12:37:12.019Z,26.40
2023-04-14T12:38:12.021Z,26.41
2023-04-14T12:39:12.035Z,26.41
2023-04-14T12:40:12.529Z,26.41
2023-04-14T12:41:12.140Z,26.41
2023-04-14T12:42:12.219Z,26.40
2023-04-14T12:43:12.225Z,26.44
2023-04-14T12:44:12.231Z,26.43
2023-04-14T12:45:12.266Z,26.44
2023-04-14T12:46:12.329Z,26.41
2023-04-14T12:47:12.402Z,26.41
2023-04-14T12:48:12.482Z,26.43
2023-04-14T12:49:12.441Z,26.40
2023-04-14T12:50:12.514Z,26.43
2023-04-14T12:51:12.856Z,26.41
2023-04-14T12:52:12.542Z,26.41
2023-04-14T12:53:12.602Z,26.44
2023-04-14T12:54:12.601Z,26.43